sensor_id;sensor_type;location;lat;lon;timestamp;pressure;altitude;pressure_sealevel;temperature
77728;BMP280;66894;51.570;7.000;2023-03-01T00:01:13;103466.75;;;-2.60
77728;BMP280;66894;51.570;7.000;2023-03-01T00:03:43;103473.84;;;-2.62
77728;BMP280;66894;51.570;7.000;2023-03-01T00:06:10;103464.03;;;-2.58
77728;BMP280;66894;51.570;7.000;2023-03-01T00:08:37;103473.38;;;-2.57
77728;BMP280;66894;51.570;7.000;2023-03-01T00:13:47;103467.88;;;-2.62
77728;BMP280;66894;51.570;7.000;2023-03-01T00:16:19;103467.88;;;-2.62
77728;BMP280;66894;51.570;7.000;2023-03-01T00:18:51;103460.47;;;-2.65
77728;BMP280;66894;51.570;7.000;2023-03-01T00:21:17;103463.19;;;-2.67
77728;BMP280;66894;51.570;7.000;2023-03-01T00:23:45;103457.91;;;-2.65
77728;BMP280;66894;51.570;7.000;2023-03-01T00:26:13;103469.13;;;-2.66
77728;BMP280;66894;51.570;7.000;2023-03-01T00:28:39;103458.69;;;-2.65
77728;BMP280;66894;51.570;7.000;2023-03-01T00:31:13;103459.34;;;-2.63
77728;BMP280;66894;51.570;7.000;2023-03-01T00:33:43;103461.28;;;-2.65
77728;BMP280;66894;51.570;7.000;2023-03-01T00:36:10;103464.97;;;-2.67
77728;BMP280;66894;51.570;7.000;2023-03-01T00:38:41;103457.56;;;-2.70
77728;BMP280;66894;51.570;7.000;2023-03-01T00:41:13;103459.50;;;-2.72
77728;BMP280;66894;51.570;7.000;2023-03-01T00:43:43;103457.06;;;-2.74
77728;BMP280;66894;51.570;7.000;2023-03-01T00:46:15;103460.56;;;-2.75
77728;BMP280;66894;51.570;7.000;2023-03-01T00:48:43;103458.84;;;-2.74
77728;BMP280;66894;51.570;7.000;2023-03-01T00:53:47;103458.84;;;-2.74
77728;BMP280;66894;51.570;7.000;2023-03-01T00:56:17;103448.69;;;-2.76
77728;BMP280;66894;51.570;7.000;2023-03-01T00:58:43;103459.63;;;-2.74
77728;BMP280;66894;51.570;7.000;2023-03-01T01:01:20;103453.31;;;-2.79
77728;BMP280;66894;51.570;7.000;2023-03-01T01:03:57;103450.28;;;-2.83
77728;BMP280;66894;51.570;7.000;2023-03-01T01:06:30;103454.78;;;-2.84
77728;BMP280;66894;51.570;7.000;2023-03-01T01:08:59;103448.66;;;-2.83
77728;BMP280;66894;51.570;7.000;2023-03-01T01:11:26;103440.94;;;-2.83
77728;BMP280;66894;51.570;7.000;2023-03-01T01:13:55;103438.38;;;-2.83
77728;BMP280;66894;51.570;7.000;2023-03-01T01:16:23;103432.09;;;-2.81
77728;BMP280;66894;51.570;7.000;2023-03-01T01:18:52;103430.50;;;-2.82
77728;BMP280;66894;51.570;7.000;2023-03-01T01:21:21;103431.63;;;-2.84
77728;BMP280;66894;51.570;7.000;2023-03-01T01:23:49;103432.88;;;-2.88
77728;BMP280;66894;51.570;7.000;2023-03-01T01:26:24;103432.22;;;-2.90
77728;BMP280;66894;51.570;7.000;2023-03-01T01:28:53;103431.69;;;-2.94
77728;BMP280;66894;51.570;7.000;2023-03-01T01:31:20;103429.97;;;-2.93
77728;BMP280;66894;51.570;7.000;2023-03-01T01:33:49;103430.63;;;-2.91
77728;BMP280;66894;51.570;7.000;2023-03-01T01:36:16;103429.97;;;-2.93
77728;BMP280;66894;51.570;7.000;2023-03-01T01:38:42;103430.63;;;-2.91
77728;BMP280;66894;51.570;7.000;2023-03-01T01:41:09;103425.91;;;-2.96
77728;BMP280;66894;51.570;7.000;2023-03-01T01:43:42;103415.81;;;-2.97
77728;BMP280;66894;51.570;7.000;2023-03-01T01:46:49;103415.81;;;-2.97
77728;BMP280;66894;51.570;7.000;2023-03-01T01:49:38;103411.78;;;-3.00
77728;BMP280;66894;51.570;7.000;2023-03-01T01:52:20;103408.22;;;-2.99
77728;BMP280;66894;51.570;7.000;2023-03-01T01:55:00;103411.66;;;-2.90
77728;BMP280;66894;51.570;7.000;2023-03-01T01:57:44;103403.69;;;-2.80
77728;BMP280;66894;51.570;7.000;2023-03-01T02:00:17;103401.13;;;-2.72
77728;BMP280;66894;51.570;7.000;2023-03-01T02:03:02;103395.69;;;-2.61
77728;BMP280;66894;51.570;7.000;2023-03-01T02:05:47;103392.53;;;-2.55
77728;BMP280;66894;51.570;7.000;2023-03-01T02:08:25;103394.63;;;-2.50
77728;BMP280;66894;51.570;7.000;2023-03-01T02:10:55;103394.31;;;-2.47
77728;BMP280;66894;51.570;7.000;2023-03-01T02:13:25;103390.97;;;-2.40
77728;BMP280;66894;51.570;7.000;2023-03-01T02:15:52;103388.06;;;-2.37
77728;BMP280;66894;51.570;7.000;2023-03-01T02:18:20;103394.81;;;-2.36
77728;BMP280;66894;51.570;7.000;2023-03-01T02:20:52;103392.91;;;-2.34
77728;BMP280;66894;51.570;7.000;2023-03-01T02:23:49;103389.84;;;-2.30
77728;BMP280;66894;51.570;7.000;2023-03-01T02:26:23;103386.16;;;-2.27
77728;BMP280;66894;51.570;7.000;2023-03-01T02:28:53;103380.66;;;-2.24
77728;BMP280;66894;51.570;7.000;2023-03-01T02:31:20;103377.66;;;-2.20
77728;BMP280;66894;51.570;7.000;2023-03-01T02:34:05;103372.03;;;-2.15
77728;BMP280;66894;51.570;7.000;2023-03-01T02:36:38;103386.19;;;-2.12
77728;BMP280;66894;51.570;7.000;2023-03-01T02:39:19;103376.53;;;-2.10
77728;BMP280;66894;51.570;7.000;2023-03-01T02:41:53;103381.22;;;-2.13
77728;BMP280;66894;51.570;7.000;2023-03-01T02:44:21;103378.44;;;-2.12
77728;BMP280;66894;51.570;7.000;2023-03-01T02:46:50;103384.59;;;-2.12
77728;BMP280;66894;51.570;7.000;2023-03-01T02:49:27;103385.22;;;-2.18
77728;BMP280;66894;51.570;7.000;2023-03-01T02:52:37;103382.28;;;-2.23
77728;BMP280;66894;51.570;7.000;2023-03-01T02:55:17;103383.06;;;-2.31
77728;BMP280;66894;51.570;7.000;2023-03-01T02:57:45;103378.41;;;-2.35
77728;BMP280;66894;51.570;7.000;2023-03-01T03:00:19;103383.25;;;-2.40
77728;BMP280;66894;51.570;7.000;2023-03-01T03:02:51;103376.94;;;-2.46
77728;BMP280;66894;51.570;7.000;2023-03-01T03:05:25;103372.44;;;-2.51
77728;BMP280;66894;51.570;7.000;2023-03-01T03:07:54;103367.63;;;-2.54
77728;BMP280;66894;51.570;7.000;2023-03-01T03:10:31;103368.59;;;-2.55
77728;BMP280;66894;51.570;7.000;2023-03-01T03:13:13;103368.72;;;-2.57
77728;BMP280;66894;51.570;7.000;2023-03-01T03:15:41;103362.91;;;-2.59
77728;BMP280;66894;51.570;7.000;2023-03-01T03:18:13;103364.50;;;-2.58
77728;BMP280;66894;51.570;7.000;2023-03-01T03:20:42;103364.50;;;-2.58
77728;BMP280;66894;51.570;7.000;2023-03-01T03:23:09;103362.41;;;-2.62
77728;BMP280;66894;51.570;7.000;2023-03-01T03:25:35;103360.81;;;-2.63
77728;BMP280;66894;51.570;7.000;2023-03-01T03:28:05;103358.91;;;-2.61
77728;BMP280;66894;51.570;7.000;2023-03-01T03:30:38;103358.41;;;-2.57
77728;BMP280;66894;51.570;7.000;2023-03-01T03:33:06;103359.75;;;-2.53
77728;BMP280;66894;51.570;7.000;2023-03-01T03:35:38;103360.06;;;-2.48
77728;BMP280;66894;51.570;7.000;2023-03-01T03:38:08;103359.78;;;-2.45
77728;BMP280;66894;51.570;7.000;2023-03-01T03:40:46;103354.59;;;-2.37
77728;BMP280;66894;51.570;7.000;2023-03-01T03:43:35;103349.63;;;-2.31
77728;BMP280;66894;51.570;7.000;2023-03-01T03:46:03;103354.81;;;-2.23
77728;BMP280;66894;51.570;7.000;2023-03-01T03:48:33;103348.53;;;-2.12
77728;BMP280;66894;51.570;7.000;2023-03-01T03:51:01;103348.69;;;-2.06
77728;BMP280;66894;51.570;7.000;2023-03-01T03:53:28;103343.88;;;-2.01
77728;BMP280;66894;51.570;7.000;2023-03-01T03:55:54;103348.22;;;-1.94
77728;BMP280;66894;51.570;7.000;2023-03-01T03:58:23;103346.59;;;-1.87
77728;BMP280;66894;51.570;7.000;2023-03-01T04:00:53;103348.81;;;-1.84
77728;BMP280;66894;51.570;7.000;2023-03-01T04:03:22;103338.72;;;-1.77
77728;BMP280;66894;51.570;7.000;2023-03-01T04:05:50;103340.81;;;-1.73
77728;BMP280;66894;51.570;7.000;2023-03-01T04:08:19;103342.25;;;-1.71
77728;BMP280;66894;51.570;7.000;2023-03-01T04:10:52;103341.09;;;-1.60
77728;BMP280;66894;51.570;7.000;2023-03-01T04:13:45;103345.25;;;-1.51
77728;BMP280;66894;51.570;7.000;2023-03-01T04:16:10;103328.81;;;-1.50
77728;BMP280;66894;51.570;7.000;2023-03-01T04:18:36;103327.53;;;-1.46
77728;BMP280;66894;51.570;7.000;2023-03-01T04:21:02;103325.44;;;-1.43
77728;BMP280;66894;51.570;7.000;2023-03-01T04:23:27;103331.69;;;-1.38
77728;BMP280;66894;51.570;7.000;2023-03-01T04:25:55;103336.16;;;-1.32
77728;BMP280;66894;51.570;7.000;2023-03-01T04:28:29;103329.59;;;-1.26
77728;BMP280;66894;51.570;7.000;2023-03-01T04:31:06;103329.88;;;-1.21
77728;BMP280;66894;51.570;7.000;2023-03-01T04:33:44;103325.66;;;-1.14
77728;BMP280;66894;51.570;7.000;2023-03-01T04:36:20;103329.19;;;-1.07
77728;BMP280;66894;51.570;7.000;2023-03-01T04:38:49;103324.47;;;-1.04
77728;BMP280;66894;51.570;7.000;2023-03-01T04:41:17;103322.38;;;-1.01
77728;BMP280;66894;51.570;7.000;2023-03-01T04:43:45;103327.03;;;-0.96
77728;BMP280;66894;51.570;7.000;2023-03-01T04:46:13;103319.56;;;-0.91
77728;BMP280;66894;51.570;7.000;2023-03-01T04:48:42;103319.25;;;-0.88
77728;BMP280;66894;51.570;7.000;2023-03-01T04:51:11;103322.75;;;-0.81
77728;BMP280;66894;51.570;7.000;2023-03-01T04:53:40;103324.00;;;-0.77
77728;BMP280;66894;51.570;7.000;2023-03-01T04:56:07;103316.56;;;-0.72
77728;BMP280;66894;51.570;7.000;2023-03-01T04:58:33;103316.22;;;-0.70
77728;BMP280;66894;51.570;7.000;2023-03-01T05:00:59;103314.28;;;-0.68
77728;BMP280;66894;51.570;7.000;2023-03-01T05:03:25;103313.28;;;-0.67
77728;BMP280;66894;51.570;7.000;2023-03-01T05:05:51;103319.09;;;-0.65
77728;BMP280;66894;51.570;7.000;2023-03-01T05:08:18;103307.47;;;-0.61
77728;BMP280;66894;51.570;7.000;2023-03-01T05:10:50;103305.50;;;-0.59
77728;BMP280;66894;51.570;7.000;2023-03-01T05:13:19;103303.56;;;-0.57
77728;BMP280;66894;51.570;7.000;2023-03-01T05:15:57;103303.38;;;-0.55
77728;BMP280;66894;51.570;7.000;2023-03-01T05:18:28;103303.66;;;-0.50
77728;BMP280;66894;51.570;7.000;2023-03-01T05:21:03;103304.09;;;-0.47
77728;BMP280;66894;51.570;7.000;2023-03-01T05:23:35;103315.25;;;-0.46
77728;BMP280;66894;51.570;7.000;2023-03-01T05:26:03;103319.59;;;-0.47
77728;BMP280;66894;51.570;7.000;2023-03-01T05:28:30;103308.94;;;-0.44
77728;BMP280;66894;51.570;7.000;2023-03-01T05:30:57;103307.97;;;-0.43
77728;BMP280;66894;51.570;7.000;2023-03-01T05:33:24;103313.41;;;-0.38
77728;BMP280;66894;51.570;7.000;2023-03-01T05:35:51;103314.00;;;-0.28
77728;BMP280;66894;51.570;7.000;2023-03-01T05:38:19;103316.25;;;-0.25
77728;BMP280;66894;51.570;7.000;2023-03-01T05:40:47;103310.72;;;-0.22
77728;BMP280;66894;51.570;7.000;2023-03-01T05:43:16;103309.28;;;-0.25
77728;BMP280;66894;51.570;7.000;2023-03-01T05:45:43;103304.94;;;-0.24
77728;BMP280;66894;51.570;7.000;2023-03-01T05:48:10;103298.19;;;-0.25
77728;BMP280;66894;51.570;7.000;2023-03-01T05:50:42;103301.97;;;-0.21
77728;BMP280;66894;51.570;7.000;2023-03-01T05:53:16;103298.28;;;-0.19
77728;BMP280;66894;51.570;7.000;2023-03-01T05:55:46;103303.88;;;-0.15
77728;BMP280;66894;51.570;7.000;2023-03-01T05:58:15;103300.34;;;-0.14
77728;BMP280;66894;51.570;7.000;2023-03-01T06:00:45;103291.16;;;-0.17
77728;BMP280;66894;51.570;7.000;2023-03-01T06:03:14;103300.34;;;-0.14
77728;BMP280;66894;51.570;7.000;2023-03-01T06:05:42;103304.66;;;-0.15
77728;BMP280;66894;51.570;7.000;2023-03-01T06:08:10;103299.34;;;-0.13
77728;BMP280;66894;51.570;7.000;2023-03-01T06:10:37;103294.19;;;-0.13
77728;BMP280;66894;51.570;7.000;2023-03-01T06:13:02;103292.22;;;-0.11
77728;BMP280;66894;51.570;7.000;2023-03-01T06:15:28;103290.09;;;-0.08
77728;BMP280;66894;51.570;7.000;2023-03-01T06:17:55;103298.47;;;-0.06
77728;BMP280;66894;51.570;7.000;2023-03-01T06:20:26;103293.94;;;-0.04
77728;BMP280;66894;51.570;7.000;2023-03-01T06:22:53;103290.19;;;-0.01
77728;BMP280;66894;51.570;7.000;2023-03-01T06:25:21;103289.03;;;0.01
77728;BMP280;66894;51.570;7.000;2023-03-01T06:27:51;103285.94;;;0.05
77728;BMP280;66894;51.570;7.000;2023-03-01T06:30:21;103288.78;;;0.10
77728;BMP280;66894;51.570;7.000;2023-03-01T06:32:50;103276.78;;;0.17
77728;BMP280;66894;51.570;7.000;2023-03-01T06:35:17;103283.78;;;0.23
77728;BMP280;66894;51.570;7.000;2023-03-01T06:37:44;103289.25;;;0.28
77728;BMP280;66894;51.570;7.000;2023-03-01T06:40:12;103288.94;;;0.37
77728;BMP280;66894;51.570;7.000;2023-03-01T06:42:40;103297.13;;;0.41
77728;BMP280;66894;51.570;7.000;2023-03-01T06:45:09;103291.97;;;0.41
77728;BMP280;66894;51.570;7.000;2023-03-01T06:47:35;103290.09;;;0.49
77728;BMP280;66894;51.570;7.000;2023-03-01T06:50:02;103295.34;;;0.56
77728;BMP280;66894;51.570;7.000;2023-03-01T06:52:28;103296.06;;;0.64
77728;BMP280;66894;51.570;7.000;2023-03-01T06:54:54;103291.75;;;0.71
77728;BMP280;66894;51.570;7.000;2023-03-01T06:57:20;103292.22;;;0.74
77728;BMP280;66894;51.570;7.000;2023-03-01T06:59:46;103290.88;;;0.78
77728;BMP280;66894;51.570;7.000;2023-03-01T07:02:14;103293.53;;;0.85
77728;BMP280;66894;51.570;7.000;2023-03-01T07:04:40;103294.56;;;0.90
77728;BMP280;66894;51.570;7.000;2023-03-01T07:07:06;103297.06;;;0.98
77728;BMP280;66894;51.570;7.000;2023-03-01T07:09:32;103288.03;;;1.08
77728;BMP280;66894;51.570;7.000;2023-03-01T07:11:58;103289.56;;;1.24
77728;BMP280;66894;51.570;7.000;2023-03-01T07:14:24;103286.25;;;1.30
77728;BMP280;66894;51.570;7.000;2023-03-01T07:16:54;103290.28;;;1.38
77728;BMP280;66894;51.570;7.000;2023-03-01T07:19:22;103280.75;;;1.45
77728;BMP280;66894;51.570;7.000;2023-03-01T07:21:48;103275.22;;;1.48
77728;BMP280;66894;51.570;7.000;2023-03-01T07:24:13;103268.19;;;1.63
77728;BMP280;66894;51.570;7.000;2023-03-01T07:26:39;103267.28;;;1.77
77728;BMP280;66894;51.570;7.000;2023-03-01T07:29:06;103269.94;;;1.90
77728;BMP280;66894;51.570;7.000;2023-03-01T07:31:35;103269.56;;;1.93
77728;BMP280;66894;51.570;7.000;2023-03-01T07:34:02;103263.81;;;1.97
77728;BMP280;66894;51.570;7.000;2023-03-01T07:36:27;103263.06;;;2.03
77728;BMP280;66894;51.570;7.000;2023-03-01T07:38:53;103262.09;;;2.10
77728;BMP280;66894;51.570;7.000;2023-03-01T07:41:20;103257.72;;;2.11
77728;BMP280;66894;51.570;7.000;2023-03-01T07:43:46;103261.34;;;2.16
77728;BMP280;66894;51.570;7.000;2023-03-01T07:46:12;103262.16;;;2.23
77728;BMP280;66894;51.570;7.000;2023-03-01T07:48:38;103263.75;;;2.24
77728;BMP280;66894;51.570;7.000;2023-03-01T07:51:05;103269.16;;;2.29
77728;BMP280;66894;51.570;7.000;2023-03-01T07:53:32;103276.16;;;2.29
77728;BMP280;66894;51.570;7.000;2023-03-01T07:56:11;103277.97;;;2.35
77728;BMP280;66894;51.570;7.000;2023-03-01T07:58:42;103278.41;;;2.44
77728;BMP280;66894;51.570;7.000;2023-03-01T08:01:14;103278.31;;;2.71
77728;BMP280;66894;51.570;7.000;2023-03-01T08:03:44;103261.97;;;2.90
77728;BMP280;66894;51.570;7.000;2023-03-01T08:06:12;103261.22;;;3.02
77728;BMP280;66894;51.570;7.000;2023-03-01T08:08:40;103270.41;;;3.24
77728;BMP280;66894;51.570;7.000;2023-03-01T08:11:08;103279.00;;;3.31
77728;BMP280;66894;51.570;7.000;2023-03-01T08:13:37;103275.19;;;3.40
77728;BMP280;66894;51.570;7.000;2023-03-01T08:16:07;103275.59;;;3.50
77728;BMP280;66894;51.570;7.000;2023-03-01T08:18:37;103281.78;;;3.49
77728;BMP280;66894;51.570;7.000;2023-03-01T08:21:08;103272.78;;;3.58
77728;BMP280;66894;51.570;7.000;2023-03-01T08:23:43;103274.97;;;3.61
77728;BMP280;66894;51.570;7.000;2023-03-01T08:26:15;103275.97;;;3.79
77728;BMP280;66894;51.570;7.000;2023-03-01T08:28:46;103270.75;;;3.79
77728;BMP280;66894;51.570;7.000;2023-03-01T08:31:23;103282.13;;;3.84
77728;BMP280;66894;51.570;7.000;2023-03-01T08:33:58;103278.91;;;3.95
77728;BMP280;66894;51.570;7.000;2023-03-01T08:36:28;103270.28;;;3.95
77728;BMP280;66894;51.570;7.000;2023-03-01T08:39:00;103261.00;;;4.18
77728;BMP280;66894;51.570;7.000;2023-03-01T08:41:26;103264.94;;;4.39
77728;BMP280;66894;51.570;7.000;2023-03-01T08:43:52;103263.59;;;4.61
77728;BMP280;66894;51.570;7.000;2023-03-01T08:46:27;103253.50;;;4.77
77728;BMP280;66894;51.570;7.000;2023-03-01T08:49:07;103259.50;;;5.02
77728;BMP280;66894;51.570;7.000;2023-03-01T08:51:36;103258.47;;;5.09
77728;BMP280;66894;51.570;7.000;2023-03-01T08:54:03;103253.59;;;5.13
77728;BMP280;66894;51.570;7.000;2023-03-01T08:56:31;103265.38;;;5.22
77728;BMP280;66894;51.570;7.000;2023-03-01T08:58:57;103264.66;;;5.32
77728;BMP280;66894;51.570;7.000;2023-03-01T09:01:22;103255.63;;;5.53
77728;BMP280;66894;51.570;7.000;2023-03-01T09:03:48;103262.69;;;5.70
77728;BMP280;66894;51.570;7.000;2023-03-01T09:06:14;103268.75;;;5.99
77728;BMP280;66894;51.570;7.000;2023-03-01T09:08:47;103258.75;;;5.96
77728;BMP280;66894;51.570;7.000;2023-03-01T09:11:17;103256.84;;;6.03
77728;BMP280;66894;51.570;7.000;2023-03-01T09:13:47;103255.06;;;6.04
77728;BMP280;66894;51.570;7.000;2023-03-01T09:16:16;103252.31;;;6.28
77728;BMP280;66894;51.570;7.000;2023-03-01T09:18:45;103250.00;;;6.49
77728;BMP280;66894;51.570;7.000;2023-03-01T09:21:18;103242.59;;;6.86
77728;BMP280;66894;51.570;7.000;2023-03-01T09:23:48;103243.59;;;7.19
77728;BMP280;66894;51.570;7.000;2023-03-01T09:26:18;103243.25;;;7.27
77728;BMP280;66894;51.570;7.000;2023-03-01T09:28:48;103247.44;;;7.62
77728;BMP280;66894;51.570;7.000;2023-03-01T09:31:20;103244.19;;;7.21
77728;BMP280;66894;51.570;7.000;2023-03-01T09:33:50;103245.88;;;7.27
77728;BMP280;66894;51.570;7.000;2023-03-01T09:36:20;103242.50;;;7.66
77728;BMP280;66894;51.570;7.000;2023-03-01T09:38:50;103244.56;;;8.03
77728;BMP280;66894;51.570;7.000;2023-03-01T09:44:10;103244.69;;;8.56
77728;BMP280;66894;51.570;7.000;2023-03-01T09:46:49;103226.94;;;8.74
77728;BMP280;66894;51.570;7.000;2023-03-01T09:49:36;103241.88;;;8.74
77728;BMP280;66894;51.570;7.000;2023-03-01T09:55:26;103238.69;;;8.56
77728;BMP280;66894;51.570;7.000;2023-03-01T09:58:31;103242.88;;;8.73
77728;BMP280;66894;51.570;7.000;2023-03-01T10:08:26;103232.59;;;11.47
77728;BMP280;66894;51.570;7.000;2023-03-01T10:11:05;103227.66;;;11.00
77728;BMP280;66894;51.570;7.000;2023-03-01T10:13:51;103223.97;;;11.95
77728;BMP280;66894;51.570;7.000;2023-03-01T10:19:33;103217.50;;;13.47
77728;BMP280;66894;51.570;7.000;2023-03-01T10:22:22;103214.84;;;13.00
77728;BMP280;66894;51.570;7.000;2023-03-01T10:24:59;103218.75;;;14.43
77728;BMP280;66894;51.570;7.000;2023-03-01T10:27:53;103220.53;;;14.25
77728;BMP280;66894;51.570;7.000;2023-03-01T10:30:35;103222.94;;;14.21
77728;BMP280;66894;51.570;7.000;2023-03-01T10:33:26;103226.91;;;13.58
77728;BMP280;66894;51.570;7.000;2023-03-01T10:35:57;103211.56;;;13.93
77728;BMP280;66894;51.570;7.000;2023-03-01T10:38:23;103209.31;;;14.10
77728;BMP280;66894;51.570;7.000;2023-03-01T10:41:09;103209.56;;;14.13
77728;BMP280;66894;51.570;7.000;2023-03-01T10:43:52;103203.34;;;14.27
77728;BMP280;66894;51.570;7.000;2023-03-01T10:46:35;103197.91;;;14.42
77728;BMP280;66894;51.570;7.000;2023-03-01T10:49:15;103210.66;;;12.89
77728;BMP280;66894;51.570;7.000;2023-03-01T10:51:51;103215.03;;;12.21
77728;BMP280;66894;51.570;7.000;2023-03-01T10:54:26;103211.88;;;11.75
77728;BMP280;66894;51.570;7.000;2023-03-01T10:57:01;103210.03;;;12.29
77728;BMP280;66894;51.570;7.000;2023-03-01T10:59:37;103208.97;;;12.06
77728;BMP280;66894;51.570;7.000;2023-03-01T11:02:27;103210.75;;;12.54
77728;BMP280;66894;51.570;7.000;2023-03-01T11:05:01;103209.97;;;12.59
77728;BMP280;66894;51.570;7.000;2023-03-01T11:07:48;103201.16;;;11.11
77728;BMP280;66894;51.570;7.000;2023-03-01T11:13:05;103199.34;;;11.11
77728;BMP280;66894;51.570;7.000;2023-03-01T11:15:43;103204.69;;;11.51
77728;BMP280;68312;53.502;10.030;2023-03-01T11:18:30;103206.03;;;12.37
77728;BMP280;68312;53.502;10.030;2023-03-01T11:20:58;103191.59;;;13.02
77728;BMP280;68312;53.502;10.030;2023-03-01T11:23:28;103187.25;;;15.24
77728;BMP280;68312;53.502;10.030;2023-03-01T11:25:59;103179.25;;;15.29
77728;BMP280;68312;53.502;10.030;2023-03-01T11:28:33;103178.91;;;15.49
77728;BMP280;68312;53.502;10.030;2023-03-01T11:31:10;103188.00;;;15.12
77728;BMP280;68312;53.502;10.030;2023-03-01T11:34:00;103182.19;;;15.91
77728;BMP280;68312;53.502;10.030;2023-03-01T11:36:42;103173.16;;;16.18
77728;BMP280;68312;53.502;10.030;2023-03-01T11:39:31;103172.97;;;16.02
77728;BMP280;68312;53.502;10.030;2023-03-01T11:45:02;103170.16;;;14.81
77728;BMP280;68312;53.502;10.030;2023-03-01T11:48:00;103169.94;;;16.21
77728;BMP280;68312;53.502;10.030;2023-03-01T11:50:57;103173.66;;;16.07
77728;BMP280;68312;53.502;10.030;2023-03-01T11:53:48;103158.91;;;15.75
77728;BMP280;68312;53.502;10.030;2023-03-01T11:56:32;103162.59;;;15.74
77728;BMP280;68312;53.502;10.030;2023-03-01T12:05:24;103149.19;;;15.21
77728;BMP280;68312;53.502;10.030;2023-03-01T12:08:23;103143.66;;;15.35
77728;BMP280;68312;53.502;10.030;2023-03-01T12:14:29;103146.06;;;15.81
77728;BMP280;68312;53.502;10.030;2023-03-01T12:17:19;103144.16;;;15.82
77728;BMP280;68312;53.502;10.030;2023-03-01T12:26:26;103126.72;;;15.94
77728;BMP280;68312;53.502;10.030;2023-03-01T12:29:25;103125.75;;;16.65
77728;BMP280;68312;53.502;10.030;2023-03-01T12:32:28;103119.50;;;16.08
77728;BMP280;68312;53.502;10.030;2023-03-01T12:35:19;103117.97;;;16.07
77728;BMP280;68312;53.502;10.030;2023-03-01T12:38:30;103120.66;;;15.62
77728;BMP280;68312;53.502;10.030;2023-03-01T12:41:06;103105.16;;;15.82
77728;BMP280;68312;53.502;10.030;2023-03-01T12:47:38;103093.16;;;16.51
77728;BMP280;68312;53.502;10.030;2023-03-01T12:50:42;103094.25;;;14.95
77728;BMP280;68312;53.502;10.030;2023-03-01T12:53:34;103096.94;;;14.53
77728;BMP280;68312;53.502;10.030;2023-03-01T12:56:08;103085.97;;;14.46
77728;BMP280;68312;53.502;10.030;2023-03-01T13:05:00;103080.47;;;15.29
77728;BMP280;68312;53.502;10.030;2023-03-01T13:10:58;103068.69;;;15.03
77728;BMP280;68312;53.502;10.030;2023-03-01T13:13:28;103069.44;;;15.67
77728;BMP280;68312;53.502;10.030;2023-03-01T13:15:56;103074.63;;;15.72
77728;BMP280;68312;53.502;10.030;2023-03-01T13:20:50;103066.63;;;14.28
77728;BMP280;68312;53.502;10.030;2023-03-01T13:33:46;103066.72;;;15.40
77728;BMP280;68312;53.502;10.030;2023-03-01T13:47:15;103045.56;;;15.09
77728;BMP280;68312;53.502;10.030;2023-03-01T13:50:03;103038.56;;;15.31
77728;BMP280;68312;53.502;10.030;2023-03-01T13:58:23;103051.28;;;13.28
77728;BMP280;68312;53.502;10.030;2023-03-01T14:01:06;103037.75;;;13.90
77728;BMP280;68312;53.502;10.030;2023-03-01T14:03:46;103053.41;;;12.93
77728;BMP280;68312;53.502;10.030;2023-03-01T14:06:15;103043.25;;;12.72
77728;BMP280;68312;53.502;10.030;2023-03-01T14:08:46;103046.06;;;12.32
77728;BMP280;68312;53.502;10.030;2023-03-01T14:14:43;103043.53;;;11.98
77728;BMP280;68312;53.502;10.030;2023-03-01T14:20:17;103027.78;;;11.49
77728;BMP280;68312;53.502;10.030;2023-03-01T14:22:49;103025.47;;;11.47
77728;BMP280;68312;53.502;10.030;2023-03-01T14:25:26;103028.81;;;10.89
77728;BMP280;68312;53.502;10.030;2023-03-01T14:28:12;103018.03;;;11.00
77728;BMP280;68312;53.502;10.030;2023-03-01T14:30:53;103028.53;;;10.80
77728;BMP280;68312;53.502;10.030;2023-03-01T14:33:25;103015.28;;;10.56
77728;BMP280;68312;53.502;10.030;2023-03-01T14:38:35;103020.59;;;10.71
77728;BMP280;68312;53.502;10.030;2023-03-01T14:41:14;103018.91;;;10.35
77728;BMP280;68312;53.502;10.030;2023-03-01T14:43:49;103016.28;;;10.45
77728;BMP280;68312;53.502;10.030;2023-03-01T14:46:24;103015.47;;;9.89
77728;BMP280;68312;53.502;10.030;2023-03-01T14:49:02;103011.38;;;9.62
77728;BMP280;68312;53.502;10.030;2023-03-01T14:51:59;103003.19;;;9.63
77728;BMP280;68312;53.502;10.030;2023-03-01T14:54:51;103003.63;;;9.51
77728;BMP280;68312;53.502;10.030;2023-03-01T14:57:21;102999.53;;;9.28
77728;BMP280;68312;53.502;10.030;2023-03-01T14:59:53;102988.25;;;9.28
77728;BMP280;68312;53.502;10.030;2023-03-01T15:02:25;102989.53;;;9.25
77728;BMP280;68312;53.502;10.030;2023-03-01T15:04:57;102985.00;;;9.16
77728;BMP280;68312;53.502;10.030;2023-03-01T15:07:32;102987.06;;;8.88
77728;BMP280;68312;53.502;10.030;2023-03-01T15:10:05;102979.16;;;8.83
77728;BMP280;68312;53.502;10.030;2023-03-01T15:12:44;102984.97;;;8.90
77728;BMP280;68312;53.502;10.030;2023-03-01T15:17:58;102991.25;;;8.63
77728;BMP280;68312;53.502;10.030;2023-03-01T15:20:28;102983.75;;;8.50
77728;BMP280;68312;53.502;10.030;2023-03-01T15:23:00;102991.66;;;8.55
77728;BMP280;68312;53.502;10.030;2023-03-01T15:25:28;102993.78;;;8.58
77728;BMP280;68312;53.502;10.030;2023-03-01T15:27:57;102988.06;;;8.40
77728;BMP280;68312;53.502;10.030;2023-03-01T15:30:31;102979.78;;;8.27
77728;BMP280;68312;53.502;10.030;2023-03-01T15:33:18;102974.47;;;8.22
77728;BMP280;68312;53.502;10.030;2023-03-01T15:35:52;102974.66;;;8.15
77728;BMP280;68312;53.502;10.030;2023-03-01T15:38:50;102976.38;;;8.10
77728;BMP280;68312;53.502;10.030;2023-03-01T15:41:38;102972.53;;;7.96
77728;BMP280;68312;53.502;10.030;2023-03-01T15:44:25;102975.88;;;7.92
77728;BMP280;68312;53.502;10.030;2023-03-01T15:46:55;102978.94;;;7.89
77728;BMP280;68312;53.502;10.030;2023-03-01T15:52:21;102972.78;;;7.78
77728;BMP280;68312;53.502;10.030;2023-03-01T15:54:59;102970.41;;;7.77
77728;BMP280;68312;53.502;10.030;2023-03-01T15:57:28;102980.25;;;7.70
77728;BMP280;68312;53.502;10.030;2023-03-01T15:59:54;102978.66;;;7.69
77728;BMP280;68312;53.502;10.030;2023-03-01T16:02:20;102977.25;;;7.62
77728;BMP280;68312;53.502;10.030;2023-03-01T16:04:48;102978.16;;;7.56
77728;BMP280;68312;53.502;10.030;2023-03-01T16:07:15;102976.03;;;7.53
77728;BMP280;68312;53.502;10.030;2023-03-01T16:09:41;102972.75;;;7.46
77728;BMP280;68312;53.502;10.030;2023-03-01T16:12:13;102970.53;;;7.38